Terminal Aerodrome Forecast
Issued by NWS Cleveland, OH

Home | Current Version | Previous Version | Graphics & Text | Print | Product List | Glossary On
Versions: 1 2 3 4 5 6 7 8 9 10 11 12 13 14 15 16 17 18 19
000
FTUS41 KCLE 270900 AAA
TAFTOL
TAF AMD
KTOL 270912Z 2709/2806 00000KT P6SM SCT008 BKN050
     FM271100 35004KT P6SM BKN008
     FM271400 01006KT P6SM BKN015
     FM271600 01006KT P6SM SCT030
     FM280000 02004KT P6SM SCT250=

USA.gov is the U.S. government's official web portal to all federal, state and local government web resources and services.